Terminal Aerodrome Forecast
Issued by NWS

Current Version | Previous Version | Graphics & Text | Print | Product List | Glossary On
Versions: 1 2 3 4 5 6 7 8 9 10 11 12 13 14 15 16 17 18 19 20 21 22 23 24 25 26 27 28 29 30 31 32 33 34 35 36
000
FTUS41 KRNK 251729
TAFLWB
TAF
KLWB 251729Z 2518/2618 VRB04KT P6SM -SHRA SCT012 OVC035
      TEMPO 2520/2523 5SM -RA BR SCT007 OVC012
     FM252300 VRB03KT 3SM -RADZ BR OVC005
     FM261500 35004KT P6SM SCT005 OVC012=

USA.gov is the U.S. government's official web portal to all federal, state and local government web resources and services.